sensor_id;sensor_type;location;lat;lon;timestamp;P1;durP1;ratioP1;P2;durP2;ratioP2
27293;SDS011;14785;52.556;13.430;2022-12-18T00:01:01;52.22;;;17.50;;
27293;SDS011;14785;52.556;13.430;2022-12-18T00:03:32;37.92;;;15.32;;
27293;SDS011;14785;52.556;13.430;2022-12-18T00:05:58;34.13;;;16.42;;
27293;SDS011;14785;52.556;13.430;2022-12-18T00:08:23;33.07;;;15.80;;
27293;SDS011;14785;52.556;13.430;2022-12-18T00:10:49;39.53;;;14.70;;
27293;SDS011;14785;52.556;13.430;2022-12-18T00:13:14;28.87;;;15.43;;
27293;SDS011;14785;52.556;13.430;2022-12-18T00:15:40;26.03;;;12.87;;
27293;SDS011;14785;52.556;13.430;2022-12-18T00:18:05;33.17;;;17.33;;
27293;SDS011;14785;52.556;13.430;2022-12-18T00:20:31;37.45;;;15.13;;
27293;SDS011;14785;52.556;13.430;2022-12-18T00:23:00;38.72;;;18.42;;
27293;SDS011;14785;52.556;13.430;2022-12-18T00:25:26;37.40;;;16.30;;
27293;SDS011;14785;52.556;13.430;2022-12-18T00:27:51;34.10;;;14.47;;
27293;SDS011;14785;52.556;13.430;2022-12-18T00:30:17;24.53;;;13.33;;
27293;SDS011;14785;52.556;13.430;2022-12-18T00:32:43;35.67;;;15.93;;
27293;SDS011;14785;52.556;13.430;2022-12-18T00:35:09;32.55;;;15.88;;
27293;SDS011;14785;52.556;13.430;2022-12-18T00:37:34;31.27;;;14.63;;
27293;SDS011;14785;52.556;13.430;2022-12-18T00:40:00;32.00;;;14.70;;
27293;SDS011;14785;52.556;13.430;2022-12-18T00:42:25;42.00;;;14.40;;
27293;SDS011;14785;52.556;13.430;2022-12-18T00:45:09;41.65;;;14.93;;
27293;SDS011;14785;52.556;13.430;2022-12-18T00:47:35;29.77;;;13.67;;
27293;SDS011;14785;52.556;13.430;2022-12-18T00:50:00;37.63;;;16.47;;
27293;SDS011;14785;52.556;13.430;2022-12-18T00:52:26;30.13;;;15.97;;
27293;SDS011;14785;52.556;13.430;2022-12-18T00:54:51;38.83;;;18.50;;
27293;SDS011;14785;52.556;13.430;2022-12-18T00:57:16;30.60;;;13.70;;
27293;SDS011;14785;52.556;13.430;2022-12-18T00:59:42;29.57;;;15.13;;
27293;SDS011;14785;52.556;13.430;2022-12-18T01:02:07;33.88;;;15.65;;
27293;SDS011;14785;52.556;13.430;2022-12-18T01:04:34;40.90;;;17.65;;
27293;SDS011;14785;52.556;13.430;2022-12-18T01:06:59;27.53;;;14.57;;
27293;SDS011;14785;52.556;13.430;2022-12-18T01:09:26;37.38;;;16.58;;
27293;SDS011;14785;52.556;13.430;2022-12-18T01:11:52;39.33;;;17.27;;
27293;SDS011;14785;52.556;13.430;2022-12-18T01:14:17;35.13;;;15.17;;
27293;SDS011;14785;52.556;13.430;2022-12-18T01:16:43;27.83;;;12.02;;
27293;SDS011;14785;52.556;13.430;2022-12-18T01:19:08;27.83;;;15.15;;
27293;SDS011;14785;52.556;13.430;2022-12-18T01:21:34;35.10;;;14.30;;
27293;SDS011;14785;52.556;13.430;2022-12-18T01:23:59;24.03;;;13.23;;
27293;SDS011;14785;52.556;13.430;2022-12-18T01:26:25;27.83;;;13.33;;
27293;SDS011;14785;52.556;13.430;2022-12-18T01:28:53;33.75;;;15.50;;
27293;SDS011;14785;52.556;13.430;2022-12-18T01:31:20;28.83;;;13.35;;
27293;SDS011;14785;52.556;13.430;2022-12-18T01:33:50;27.45;;;14.32;;
27293;SDS011;14785;52.556;13.430;2022-12-18T01:38:44;32.13;;;15.55;;
27293;SDS011;14785;52.556;13.430;2022-12-18T01:41:14;37.17;;;16.85;;
27293;SDS011;14785;52.556;13.430;2022-12-18T01:43:45;32.35;;;14.60;;
27293;SDS011;14785;52.556;13.430;2022-12-18T01:46:17;32.60;;;15.05;;
27293;SDS011;14785;52.556;13.430;2022-12-18T01:48:44;23.50;;;13.85;;
27293;SDS011;14785;52.556;13.430;2022-12-18T01:51:12;27.40;;;14.23;;
27293;SDS011;14785;52.556;13.430;2022-12-18T01:53:39;33.13;;;15.52;;
27293;SDS011;14785;52.556;13.430;2022-12-18T01:56:06;37.10;;;16.13;;
27293;SDS011;14785;52.556;13.430;2022-12-18T02:01:11;29.63;;;13.85;;
27293;SDS011;14785;52.556;13.430;2022-12-18T02:03:36;35.20;;;14.50;;
27293;SDS011;14785;52.556;13.430;2022-12-18T02:08:36;46.10;;;15.95;;
27293;SDS011;14785;52.556;13.430;2022-12-18T02:11:36;36.15;;;15.63;;
27293;SDS011;14785;52.556;13.430;2022-12-18T02:14:14;29.42;;;13.63;;
27293;SDS011;14785;52.556;13.430;2022-12-18T02:21:54;30.15;;;15.30;;
27293;SDS011;14785;52.556;13.430;2022-12-18T02:24:29;41.03;;;16.52;;
27293;SDS011;14785;52.556;13.430;2022-12-18T02:27:04;39.97;;;17.02;;
27293;SDS011;14785;52.556;13.430;2022-12-18T02:29:46;51.72;;;18.92;;
27293;SDS011;14785;52.556;13.430;2022-12-18T02:32:20;52.15;;;17.80;;
27293;SDS011;14785;52.556;13.430;2022-12-18T02:34:51;50.00;;;20.75;;
27293;SDS011;14785;52.556;13.430;2022-12-18T02:37:20;42.55;;;19.15;;
27293;SDS011;14785;52.556;13.430;2022-12-18T02:39:47;40.45;;;17.88;;
27293;SDS011;14785;52.556;13.430;2022-12-18T02:42:14;39.67;;;20.15;;
27293;SDS011;14785;52.556;13.430;2022-12-18T02:44:46;44.05;;;18.20;;
27293;SDS011;14785;52.556;13.430;2022-12-18T02:47:14;51.42;;;21.02;;
27293;SDS011;14785;52.556;13.430;2022-12-18T02:50:02;44.20;;;18.45;;
27293;SDS011;14785;52.556;13.430;2022-12-18T02:52:49;43.65;;;18.95;;
27293;SDS011;14785;52.556;13.430;2022-12-18T02:55:58;38.15;;;17.42;;
27293;SDS011;14785;52.556;13.430;2022-12-18T02:58:35;37.67;;;18.10;;
27293;SDS011;14785;52.556;13.430;2022-12-18T03:03:40;59.85;;;23.10;;
27293;SDS011;14785;52.556;13.430;2022-12-18T03:06:32;53.65;;;21.90;;
27293;SDS011;14785;52.556;13.430;2022-12-18T03:09:03;46.78;;;20.08;;
27293;SDS011;14785;52.556;13.430;2022-12-18T03:11:36;51.80;;;23.70;;
27293;SDS011;14785;52.556;13.430;2022-12-18T03:14:23;50.58;;;24.52;;
27293;SDS011;14785;52.556;13.430;2022-12-18T03:16:54;49.28;;;21.63;;
27293;SDS011;14785;52.556;13.430;2022-12-18T03:19:24;52.22;;;23.40;;
27293;SDS011;14785;52.556;13.430;2022-12-18T03:21:54;62.95;;;25.58;;
27293;SDS011;14785;52.556;13.430;2022-12-18T03:24:22;43.28;;;22.05;;
27293;SDS011;14785;52.556;13.430;2022-12-18T03:26:51;61.10;;;22.55;;
27293;SDS011;14785;52.556;13.430;2022-12-18T03:31:54;57.72;;;23.85;;
27293;SDS011;14785;52.556;13.430;2022-12-18T03:34:32;59.63;;;23.80;;
27293;SDS011;14785;52.556;13.430;2022-12-18T03:37:02;76.28;;;27.92;;
27293;SDS011;14785;52.556;13.430;2022-12-18T03:39:29;58.00;;;25.33;;
27293;SDS011;14785;52.556;13.430;2022-12-18T03:44:28;66.35;;;23.88;;
27293;SDS011;14785;52.556;13.430;2022-12-18T03:47:09;59.50;;;23.00;;
27293;SDS011;14785;52.556;13.430;2022-12-18T03:52:45;39.85;;;17.35;;
27293;SDS011;14785;52.556;13.430;2022-12-18T03:55:17;53.00;;;21.70;;
27293;SDS011;14785;52.556;13.430;2022-12-18T03:57:44;42.45;;;17.83;;
27293;SDS011;14785;52.556;13.430;2022-12-18T04:00:12;38.85;;;17.95;;
27293;SDS011;14785;52.556;13.430;2022-12-18T04:02:42;47.70;;;20.40;;
27293;SDS011;14785;52.556;13.430;2022-12-18T04:05:12;40.03;;;17.52;;
27293;SDS011;14785;52.556;13.430;2022-12-18T04:07:39;54.15;;;22.05;;
27293;SDS011;14785;52.556;13.430;2022-12-18T04:10:05;28.90;;;14.27;;
27293;SDS011;14785;52.556;13.430;2022-12-18T04:12:37;41.35;;;18.08;;
27293;SDS011;14785;52.556;13.430;2022-12-18T04:15:03;41.33;;;17.75;;
27293;SDS011;14785;52.556;13.430;2022-12-18T04:19:54;30.95;;;16.55;;
27293;SDS011;14785;52.556;13.430;2022-12-18T04:22:20;38.78;;;16.55;;
27293;SDS011;14785;52.556;13.430;2022-12-18T04:24:47;57.55;;;19.33;;
27293;SDS011;14785;52.556;13.430;2022-12-18T04:27:12;42.60;;;17.92;;
27293;SDS011;14785;52.556;13.430;2022-12-18T04:29:38;32.10;;;15.27;;
27293;SDS011;14785;52.556;13.430;2022-12-18T04:32:04;35.60;;;14.98;;
27293;SDS011;14785;52.556;13.430;2022-12-18T04:34:29;40.33;;;19.13;;
27293;SDS011;14785;52.556;13.430;2022-12-18T04:36:55;33.28;;;17.30;;
27293;SDS011;14785;52.556;13.430;2022-12-18T04:39:21;40.78;;;18.88;;
27293;SDS011;14785;52.556;13.430;2022-12-18T04:41:46;48.80;;;20.87;;
27293;SDS011;14785;52.556;13.430;2022-12-18T04:44:12;43.60;;;18.38;;
27293;SDS011;14785;52.556;13.430;2022-12-18T04:46:37;48.10;;;17.87;;
27293;SDS011;14785;52.556;13.430;2022-12-18T04:49:03;38.07;;;17.67;;
27293;SDS011;14785;52.556;13.430;2022-12-18T04:51:28;40.75;;;17.42;;
27293;SDS011;14785;52.556;13.430;2022-12-18T04:53:55;44.90;;;17.60;;
27293;SDS011;14785;52.556;13.430;2022-12-18T04:56:20;44.10;;;17.48;;
27293;SDS011;14785;52.556;13.430;2022-12-18T04:58:46;40.65;;;17.13;;
27293;SDS011;14785;52.556;13.430;2022-12-18T05:01:12;33.47;;;15.43;;
27293;SDS011;14785;52.556;13.430;2022-12-18T05:03:39;46.13;;;18.65;;
27293;SDS011;14785;52.556;13.430;2022-12-18T05:06:05;46.20;;;17.35;;
27293;SDS011;14785;52.556;13.430;2022-12-18T05:08:32;42.38;;;17.45;;
27293;SDS011;14785;52.556;13.430;2022-12-18T05:11:05;47.35;;;15.85;;
27293;SDS011;14785;52.556;13.430;2022-12-18T05:13:36;43.42;;;17.35;;
27293;SDS011;14785;52.556;13.430;2022-12-18T05:16:03;45.38;;;18.13;;
27293;SDS011;14785;52.556;13.430;2022-12-18T05:18:29;42.92;;;17.80;;
27293;SDS011;14785;52.556;13.430;2022-12-18T05:20:55;38.33;;;14.80;;
27293;SDS011;14785;52.556;13.430;2022-12-18T05:23:21;42.28;;;16.77;;
27293;SDS011;14785;52.556;13.430;2022-12-18T05:25:51;40.22;;;16.10;;
27293;SDS011;14785;52.556;13.430;2022-12-18T05:28:25;40.92;;;19.80;;
27293;SDS011;14785;52.556;13.430;2022-12-18T05:30:53;36.08;;;16.15;;
27293;SDS011;14785;52.556;13.430;2022-12-18T05:33:20;39.67;;;19.45;;
27293;SDS011;14785;52.556;13.430;2022-12-18T05:35:54;38.63;;;14.43;;
27293;SDS011;14785;52.556;13.430;2022-12-18T05:38:25;35.17;;;14.43;;
27293;SDS011;14785;52.556;13.430;2022-12-18T05:40:52;41.50;;;16.17;;
27293;SDS011;14785;52.556;13.430;2022-12-18T05:43:19;35.92;;;15.35;;
27293;SDS011;14785;52.556;13.430;2022-12-18T05:45:46;31.08;;;13.43;;
27293;SDS011;14785;52.556;13.430;2022-12-18T05:50:39;43.45;;;17.15;;
27293;SDS011;14785;52.556;13.430;2022-12-18T05:53:07;37.13;;;16.35;;
27293;SDS011;14785;52.556;13.430;2022-12-18T05:55:34;39.22;;;16.38;;
27293;SDS011;14785;52.556;13.430;2022-12-18T05:58:00;31.35;;;14.50;;
27293;SDS011;14785;52.556;13.430;2022-12-18T06:00:26;36.30;;;16.13;;
27293;SDS011;14785;52.556;13.430;2022-12-18T06:02:54;34.47;;;15.55;;
27293;SDS011;14785;52.556;13.430;2022-12-18T06:05:20;41.22;;;18.83;;
27293;SDS011;14785;52.556;13.430;2022-12-18T06:07:46;36.60;;;13.73;;
27293;SDS011;14785;52.556;13.430;2022-12-18T06:10:11;43.80;;;17.27;;
27293;SDS011;14785;52.556;13.430;2022-12-18T06:12:39;35.38;;;15.90;;
27293;SDS011;14785;52.556;13.430;2022-12-18T06:15:04;48.90;;;18.20;;
27293;SDS011;14785;52.556;13.430;2022-12-18T06:17:30;44.40;;;17.30;;
27293;SDS011;14785;52.556;13.430;2022-12-18T06:19:57;40.42;;;16.35;;
27293;SDS011;14785;52.556;13.430;2022-12-18T06:22:25;42.90;;;17.08;;
27293;SDS011;14785;52.556;13.430;2022-12-18T06:24:51;39.38;;;18.95;;
27293;SDS011;14785;52.556;13.430;2022-12-18T06:27:22;32.63;;;18.10;;
27293;SDS011;14785;52.556;13.430;2022-12-18T06:29:47;51.70;;;21.58;;
27293;SDS011;14785;52.556;13.430;2022-12-18T06:32:13;41.33;;;18.83;;
27293;SDS011;14785;52.556;13.430;2022-12-18T06:34:38;53.70;;;22.13;;
27293;SDS011;14785;52.556;13.430;2022-12-18T06:37:03;41.93;;;19.40;;
27293;SDS011;14785;52.556;13.430;2022-12-18T06:39:29;43.60;;;20.75;;
27293;SDS011;14785;52.556;13.430;2022-12-18T06:41:58;52.50;;;19.10;;
27293;SDS011;14785;52.556;13.430;2022-12-18T06:44:23;51.55;;;22.33;;
27293;SDS011;14785;52.556;13.430;2022-12-18T06:46:49;51.97;;;22.13;;
27293;SDS011;14785;52.556;13.430;2022-12-18T06:49:14;38.97;;;18.10;;
27293;SDS011;14785;52.556;13.430;2022-12-18T06:51:41;55.65;;;23.45;;
27293;SDS011;14785;52.556;13.430;2022-12-18T06:54:07;49.95;;;20.80;;
27293;SDS011;14785;52.556;13.430;2022-12-18T06:56:33;50.97;;;20.52;;
27293;SDS011;14785;52.556;13.430;2022-12-18T06:59:01;63.70;;;22.20;;
27293;SDS011;14785;52.556;13.430;2022-12-18T07:01:26;56.97;;;21.43;;
27293;SDS011;14785;52.556;13.430;2022-12-18T07:03:52;44.92;;;19.48;;
27293;SDS011;14785;52.556;13.430;2022-12-18T07:06:20;64.57;;;21.20;;
27293;SDS011;14785;52.556;13.430;2022-12-18T07:08:48;44.78;;;19.73;;
27293;SDS011;14785;52.556;13.430;2022-12-18T07:11:14;48.17;;;20.15;;
27293;SDS011;14785;52.556;13.430;2022-12-18T07:13:43;62.13;;;19.65;;
27293;SDS011;14785;52.556;13.430;2022-12-18T07:16:10;52.00;;;19.40;;
27293;SDS011;14785;52.556;13.430;2022-12-18T07:18:35;41.85;;;19.48;;
27293;SDS011;14785;52.556;13.430;2022-12-18T07:21:08;55.28;;;21.05;;
27293;SDS011;14785;52.556;13.430;2022-12-18T07:23:35;46.08;;;19.00;;
27293;SDS011;14785;52.556;13.430;2022-12-18T07:26:02;56.92;;;22.42;;
27293;SDS011;14785;52.556;13.430;2022-12-18T07:28:30;43.65;;;19.20;;
27293;SDS011;14785;52.556;13.430;2022-12-18T07:30:56;49.60;;;20.52;;
27293;SDS011;14785;52.556;13.430;2022-12-18T07:33:22;50.05;;;19.92;;
27293;SDS011;14785;52.556;13.430;2022-12-18T07:35:47;44.33;;;19.77;;
27293;SDS011;14785;52.556;13.430;2022-12-18T07:38:14;41.57;;;18.57;;
27293;SDS011;14785;52.556;13.430;2022-12-18T07:40:39;43.85;;;20.40;;
27293;SDS011;14785;52.556;13.430;2022-12-18T07:43:06;42.70;;;16.53;;
27293;SDS011;14785;52.556;13.430;2022-12-18T07:45:32;30.27;;;12.95;;
27293;SDS011;14785;52.556;13.430;2022-12-18T07:47:57;32.30;;;17.53;;
27293;SDS011;14785;52.556;13.430;2022-12-18T07:50:24;40.33;;;19.13;;
27293;SDS011;14785;52.556;13.430;2022-12-18T07:52:49;36.95;;;15.60;;
27293;SDS011;14785;52.556;13.430;2022-12-18T07:55:15;47.67;;;19.03;;
27293;SDS011;14785;52.556;13.430;2022-12-18T07:57:40;38.37;;;17.53;;
27293;SDS011;14785;52.556;13.430;2022-12-18T08:00:05;49.13;;;21.43;;
27293;SDS011;14785;52.556;13.430;2022-12-18T08:04:57;52.67;;;20.17;;
27293;SDS011;14785;52.556;13.430;2022-12-18T08:07:24;46.45;;;19.75;;
27293;SDS011;14785;52.556;13.430;2022-12-18T08:09:53;46.88;;;20.98;;
27293;SDS011;14785;52.556;13.430;2022-12-18T08:12:22;52.05;;;21.00;;
27293;SDS011;14785;52.556;13.430;2022-12-18T08:14:48;40.93;;;20.03;;
27293;SDS011;14785;52.556;13.430;2022-12-18T08:17:16;39.50;;;18.70;;
27293;SDS011;14785;52.556;13.430;2022-12-18T08:19:41;34.58;;;17.67;;
27293;SDS011;14785;52.556;13.430;2022-12-18T08:22:08;38.47;;;18.20;;
27293;SDS011;14785;52.556;13.430;2022-12-18T08:24:34;37.80;;;17.08;;
27293;SDS011;14785;52.556;13.430;2022-12-18T08:27:01;39.70;;;16.83;;
27293;SDS011;14785;52.556;13.430;2022-12-18T08:29:28;37.47;;;16.30;;
27293;SDS011;14785;52.556;13.430;2022-12-18T08:31:55;38.83;;;17.85;;
27293;SDS011;14785;52.556;13.430;2022-12-18T08:34:21;46.67;;;17.10;;
27293;SDS011;14785;52.556;13.430;2022-12-18T08:36:46;31.35;;;14.55;;
27293;SDS011;14785;52.556;13.430;2022-12-18T08:39:13;32.03;;;15.18;;
27293;SDS011;14785;52.556;13.430;2022-12-18T08:41:38;38.40;;;14.95;;
27293;SDS011;14785;52.556;13.430;2022-12-18T08:44:04;31.60;;;16.27;;
27293;SDS011;14785;52.556;13.430;2022-12-18T08:46:48;35.90;;;15.73;;
27293;SDS011;14785;52.556;13.430;2022-12-18T08:49:16;29.88;;;14.73;;
27293;SDS011;14785;52.556;13.430;2022-12-18T08:51:42;30.13;;;14.90;;
27293;SDS011;14785;52.556;13.430;2022-12-18T08:54:09;40.78;;;16.35;;
27293;SDS011;14785;52.556;13.430;2022-12-18T08:56:36;37.78;;;16.30;;
27293;SDS011;14785;52.556;13.430;2022-12-18T08:59:02;37.60;;;15.67;;
27293;SDS011;14785;52.556;13.430;2022-12-18T09:01:29;28.40;;;14.45;;
27293;SDS011;14785;52.556;13.430;2022-12-18T09:03:55;30.45;;;12.95;;
27293;SDS011;14785;52.556;13.430;2022-12-18T09:06:21;30.65;;;13.65;;
27293;SDS011;14785;52.556;13.430;2022-12-18T09:08:47;34.35;;;14.93;;
27293;SDS011;14785;52.556;13.430;2022-12-18T09:11:14;39.15;;;17.38;;
27293;SDS011;14785;52.556;13.430;2022-12-18T09:13:44;32.25;;;15.05;;
27293;SDS011;14785;52.556;13.430;2022-12-18T09:16:10;28.57;;;13.93;;
27293;SDS011;14785;52.556;13.430;2022-12-18T09:18:35;37.20;;;15.50;;
27293;SDS011;14785;52.556;13.430;2022-12-18T09:21:06;35.67;;;14.97;;
27293;SDS011;14785;52.556;13.430;2022-12-18T09:23:37;23.27;;;11.10;;
27293;SDS011;14785;52.556;13.430;2022-12-18T09:26:02;30.48;;;12.77;;
27293;SDS011;14785;52.556;13.430;2022-12-18T09:28:28;41.10;;;16.43;;
27293;SDS011;14785;52.556;13.430;2022-12-18T09:30:53;36.13;;;15.27;;
27293;SDS011;14785;52.556;13.430;2022-12-18T09:33:19;33.50;;;14.93;;
27293;SDS011;14785;52.556;13.430;2022-12-18T09:35:44;30.57;;;15.20;;
27293;SDS011;14785;52.556;13.430;2022-12-18T09:38:17;31.63;;;15.32;;
27293;SDS011;14785;52.556;13.430;2022-12-18T09:40:48;24.42;;;13.30;;
27293;SDS011;14785;52.556;13.430;2022-12-18T09:43:18;31.08;;;14.93;;
27293;SDS011;14785;52.556;13.430;2022-12-18T09:45:49;38.13;;;13.38;;
27293;SDS011;14785;52.556;13.430;2022-12-18T09:48:30;39.72;;;17.67;;
27293;SDS011;14785;52.556;13.430;2022-12-18T09:51:03;24.10;;;12.75;;
27293;SDS011;14785;52.556;13.430;2022-12-18T09:53:53;26.23;;;14.10;;
27293;SDS011;14785;52.556;13.430;2022-12-18T09:56:23;70.30;;;23.95;;
27293;SDS011;14785;52.556;13.430;2022-12-18T09:58:55;45.92;;;16.75;;
27293;SDS011;14785;52.556;13.430;2022-12-18T10:01:24;29.90;;;15.57;;
27293;SDS011;14785;52.556;13.430;2022-12-18T10:09:11;39.83;;;19.20;;
27293;SDS011;14785;52.556;13.430;2022-12-18T10:11:50;49.40;;;20.38;;
27293;SDS011;14785;52.556;13.430;2022-12-18T10:19:56;46.58;;;18.15;;
27293;SDS011;14785;52.556;13.430;2022-12-18T10:22:29;44.67;;;17.25;;
27293;SDS011;14785;52.556;13.430;2022-12-18T10:27:40;33.35;;;15.77;;
27293;SDS011;14785;52.556;13.430;2022-12-18T10:30:12;65.90;;;18.23;;
27293;SDS011;14785;52.556;13.430;2022-12-18T10:32:42;26.90;;;14.93;;
27293;SDS011;14785;52.556;13.430;2022-12-18T10:35:11;37.63;;;15.70;;
27293;SDS011;14785;52.556;13.430;2022-12-18T10:40:58;38.40;;;17.77;;
27293;SDS011;14785;52.556;13.430;2022-12-18T10:43:30;37.50;;;16.25;;
27293;SDS011;14785;52.556;13.430;2022-12-18T10:45:58;39.20;;;18.95;;
27293;SDS011;14785;52.556;13.430;2022-12-18T10:48:24;49.00;;;17.50;;
27293;SDS011;14785;52.556;13.430;2022-12-18T10:50:50;42.53;;;17.20;;
27293;SDS011;14785;52.556;13.430;2022-12-18T10:53:21;36.10;;;17.15;;
27293;SDS011;14785;52.556;13.430;2022-12-18T10:55:48;41.92;;;19.65;;
27293;SDS011;14785;52.556;13.430;2022-12-18T10:58:21;40.42;;;17.80;;
27293;SDS011;14785;52.556;13.430;2022-12-18T11:03:43;50.45;;;19.25;;
27293;SDS011;14785;52.556;13.430;2022-12-18T11:06:12;42.47;;;18.65;;
27293;SDS011;14785;52.556;13.430;2022-12-18T11:08:41;49.55;;;18.63;;
27293;SDS011;14785;52.556;13.430;2022-12-18T11:11:41;32.45;;;16.65;;
27293;SDS011;14785;52.556;13.430;2022-12-18T11:16:35;37.60;;;16.08;;
27293;SDS011;14785;52.556;13.430;2022-12-18T11:19:13;35.33;;;16.65;;
27293;SDS011;14785;52.556;13.430;2022-12-18T11:21:40;41.88;;;19.08;;
27293;SDS011;14785;52.556;13.430;2022-12-18T11:24:19;34.53;;;17.38;;
27293;SDS011;14785;52.556;13.430;2022-12-18T11:26:49;40.95;;;16.63;;
27293;SDS011;14785;52.556;13.430;2022-12-18T11:29:19;36.85;;;13.32;;
27293;SDS011;14785;52.556;13.430;2022-12-18T11:37:37;38.25;;;16.42;;
27293;SDS011;14785;52.556;13.430;2022-12-18T11:40:10;29.60;;;14.32;;
27293;SDS011;14785;52.556;13.430;2022-12-18T11:42:44;30.85;;;13.30;;
27293;SDS011;14785;52.556;13.430;2022-12-18T11:45:33;35.72;;;15.68;;
27293;SDS011;14785;52.556;13.430;2022-12-18T11:53:20;25.73;;;12.00;;
27293;SDS011;14785;52.556;13.430;2022-12-18T11:58:44;37.38;;;14.48;;
27293;SDS011;14785;52.556;13.430;2022-12-18T12:06:32;27.75;;;12.63;;
27293;SDS011;14785;52.556;13.430;2022-12-18T12:25:49;30.77;;;13.02;;
27293;SDS011;14785;52.556;13.430;2022-12-18T12:31:24;28.10;;;13.88;;
27293;SDS011;14785;52.556;13.430;2022-12-18T12:33:58;27.75;;;14.43;;
27293;SDS011;14785;52.556;13.430;2022-12-18T12:36:38;31.92;;;14.88;;
27293;SDS011;14785;52.556;13.430;2022-12-18T12:39:14;32.00;;;14.52;;
27293;SDS011;14785;52.556;13.430;2022-12-18T12:41:44;36.13;;;12.13;;
27293;SDS011;14785;52.556;13.430;2022-12-18T12:44:32;41.22;;;14.07;;
27293;SDS011;14785;52.556;13.430;2022-12-18T12:47:06;23.88;;;12.55;;
27293;SDS011;14785;52.556;13.430;2022-12-18T12:49:38;37.45;;;15.38;;
27293;SDS011;14785;52.556;13.430;2022-12-18T12:52:10;30.92;;;13.50;;
27293;SDS011;14785;52.556;13.430;2022-12-18T12:54:41;25.95;;;13.88;;
27293;SDS011;14785;52.556;13.430;2022-12-18T13:10:39;23.40;;;11.70;;
27293;SDS011;14785;52.556;13.430;2022-12-18T13:13:09;31.95;;;13.68;;
27293;SDS011;14785;52.556;13.430;2022-12-18T13:20:42;24.88;;;11.50;;
27293;SDS011;14785;52.556;13.430;2022-12-18T13:31:12;28.98;;;13.02;;
27293;SDS011;14785;52.556;13.430;2022-12-18T13:36:42;29.45;;;14.13;;
27293;SDS011;14785;52.556;13.430;2022-12-18T13:44:52;31.70;;;14.18;;
27293;SDS011;14785;52.556;13.430;2022-12-18T13:47:33;24.40;;;12.47;;
27293;SDS011;14785;52.556;13.430;2022-12-18T13:50:09;21.58;;;11.45;;
27293;SDS011;14785;52.556;13.430;2022-12-18T13:52:45;25.35;;;12.18;;
27293;SDS011;14785;52.556;13.430;2022-12-18T13:55:14;25.50;;;11.18;;
27293;SDS011;14785;52.556;13.430;2022-12-18T13:57:42;39.08;;;14.43;;
27293;SDS011;14785;52.556;13.430;2022-12-18T14:02:54;27.02;;;12.82;;
27293;SDS011;14785;52.556;13.430;2022-12-18T14:05:26;24.25;;;11.75;;
27293;SDS011;14785;52.556;13.430;2022-12-18T14:07:53;23.85;;;13.05;;
27293;SDS011;14785;52.556;13.430;2022-12-18T14:10:23;28.98;;;13.27;;
27293;SDS011;14785;52.556;13.430;2022-12-18T14:12:49;21.13;;;12.53;;
27293;SDS011;14785;52.556;13.430;2022-12-18T14:17:52;29.52;;;14.45;;
27293;SDS011;14785;52.556;13.430;2022-12-18T14:20:30;27.25;;;12.00;;
27293;SDS011;14785;52.556;13.430;2022-12-18T14:22:58;22.75;;;13.27;;
27293;SDS011;14785;52.556;13.430;2022-12-18T14:25:28;30.27;;;14.65;;
27293;SDS011;14785;52.556;13.430;2022-12-18T14:28:11;30.40;;;13.63;;
27293;SDS011;14785;52.556;13.430;2022-12-18T14:30:43;20.98;;;12.85;;
27293;SDS011;14785;52.556;13.430;2022-12-18T14:33:11;21.15;;;11.65;;
27293;SDS011;14785;52.556;13.430;2022-12-18T14:35:40;28.50;;;14.98;;
27293;SDS011;14785;52.556;13.430;2022-12-18T14:38:31;37.03;;;14.68;;
27293;SDS011;14785;52.556;13.430;2022-12-18T14:40:58;30.13;;;14.82;;
27293;SDS011;14785;52.556;13.430;2022-12-18T14:43:36;25.52;;;13.90;;
27293;SDS011;14785;52.556;13.430;2022-12-18T14:46:03;29.38;;;12.38;;
27293;SDS011;14785;52.556;13.430;2022-12-18T14:51:16;30.83;;;12.75;;
27293;SDS011;14785;52.556;13.430;2022-12-18T14:53:55;25.70;;;11.93;;
27293;SDS011;14785;52.556;13.430;2022-12-18T14:56:33;27.38;;;12.75;;
27293;SDS011;14785;52.556;13.430;2022-12-18T14:59:21;30.80;;;13.98;;
27293;SDS011;14785;52.556;13.430;2022-12-18T15:01:54;27.98;;;12.05;;
27293;SDS011;14785;52.556;13.430;2022-12-18T15:04:28;22.90;;;13.10;;
27293;SDS011;14785;52.556;13.430;2022-12-18T15:09:42;20.33;;;11.68;;
27293;SDS011;14785;52.556;13.430;2022-12-18T15:12:35;19.25;;;10.68;;
27293;SDS011;14785;52.556;13.430;2022-12-18T15:18:09;22.55;;;12.60;;
27293;SDS011;14785;52.556;13.430;2022-12-18T15:20:42;31.00;;;13.85;;
27293;SDS011;14785;52.556;13.430;2022-12-18T15:23:14;23.92;;;12.05;;
27293;SDS011;14785;52.556;13.430;2022-12-18T15:28:26;24.65;;;13.30;;
27293;SDS011;14785;52.556;13.430;2022-12-18T15:31:01;23.95;;;12.77;;
27293;SDS011;14785;52.556;13.430;2022-12-18T15:33:30;29.52;;;12.88;;
27293;SDS011;14785;52.556;13.430;2022-12-18T15:36:02;23.85;;;13.73;;
27293;SDS011;14785;52.556;13.430;2022-12-18T15:38:29;53.10;;;25.00;;
27293;SDS011;14785;52.556;13.430;2022-12-18T15:40:56;36.08;;;15.57;;
27293;SDS011;14785;52.556;13.430;2022-12-18T15:43:22;21.00;;;12.85;;
27293;SDS011;14785;52.556;13.430;2022-12-18T15:46:06;24.70;;;11.50;;
27293;SDS011;14785;52.556;13.430;2022-12-18T15:48:54;25.60;;;12.95;;
27293;SDS011;14785;52.556;13.430;2022-12-18T15:51:25;24.52;;;11.15;;
27293;SDS011;14785;52.556;13.430;2022-12-18T15:53:58;22.67;;;12.07;;
27293;SDS011;14785;52.556;13.430;2022-12-18T15:56:36;20.50;;;11.93;;
27293;SDS011;14785;52.556;13.430;2022-12-18T15:59:20;19.63;;;11.05;;
27293;SDS011;14785;52.556;13.430;2022-12-18T16:01:47;25.45;;;12.68;;
27293;SDS011;14785;52.556;13.430;2022-12-18T16:04:14;20.02;;;10.90;;
27293;SDS011;14785;52.556;13.430;2022-12-18T16:06:41;25.27;;;13.10;;
27293;SDS011;14785;52.556;13.430;2022-12-18T16:09:08;23.13;;;12.23;;
27293;SDS011;14785;52.556;13.430;2022-12-18T16:11:37;25.65;;;12.38;;
27293;SDS011;14785;52.556;13.430;2022-12-18T16:16:48;20.10;;;11.43;;
27293;SDS011;14785;52.556;13.430;2022-12-18T16:19:17;28.73;;;14.02;;
27293;SDS011;14785;52.556;13.430;2022-12-18T16:21:45;18.50;;;11.80;;
27293;SDS011;14785;52.556;13.430;2022-12-18T16:24:16;29.77;;;13.57;;
27293;SDS011;14785;52.556;13.430;2022-12-18T16:26:50;33.33;;;14.73;;
27293;SDS011;14785;52.556;13.430;2022-12-18T16:29:22;27.42;;;14.05;;
27293;SDS011;14785;52.556;13.430;2022-12-18T16:31:57;24.80;;;14.57;;
27293;SDS011;14785;52.556;13.430;2022-12-18T16:34:46;21.50;;;12.45;;
27293;SDS011;14785;52.556;13.430;2022-12-18T16:37:13;25.92;;;13.80;;
27293;SDS011;14785;52.556;13.430;2022-12-18T16:39:41;21.35;;;12.32;;
27293;SDS011;14785;52.556;13.430;2022-12-18T16:42:12;31.88;;;14.25;;
27293;SDS011;14785;52.556;13.430;2022-12-18T16:44:42;23.10;;;12.05;;
27293;SDS011;14785;52.556;13.430;2022-12-18T16:47:12;23.10;;;12.02;;
27293;SDS011;14785;52.556;13.430;2022-12-18T16:49:42;22.67;;;12.57;;